Terminal Aerodrome Forecast
Issued by NWS Cleveland, OH

Home | Current Version | Previous Version | Text Only | Print | Product List | Glossary Off
Versions: 1 2 3 4 5 6 7 8 9 10 11 12 13 14 15 16 17 18 19 20 21 22 23 24 25 26 27 28

000
FTUS41 KCLE 301900 AAA
TAFCLE
TAF AMD
KCLE 301940Z 3020/3124 22010G20KT P6SM VCTS SCT060CB
      TEMPO 3020/3021 5SM -TSRA BKN060CB
     FM310500 22010KT P6SM -SHRA VCTS SCT030CB OVC120
     FM310900 22009KT 6SM -SHRA VCTS OVC035CB
     FM311200 23009KT 4SM BR VCSH OVC015
     FM311400 23009KT P6SM BKN025=

USA.gov is the U.S. government's official web portal to all federal, state and local government web resources and services.